Time;durP1;ratioP1;P1;durP2;ratioP2;P2;SDS_P1;SDS_P2;PMS_P1;PMS_P2;Temp;Humidity;BMP_temperature;BMP_pressure;BME280_temperature;BME280_humidity;BME280_pressure;Samples;Min_cycle;Max_cycle;Signal;HPM_P1;HPM_P2
2022/12/31 00:00:38;;;;;;;35.77;23.67;;;3.50;99.90;;;;;;5014037;28;20198;-64
2022/12/31 00:03:05;;;;;;;37.90;24.20;;;3.50;99.90;;;;;;5014776;28;20214;-65
2022/12/31 00:05:35;;;;;;;42.53;24.77;;;3.40;99.90;;;;;;5014891;28;20213;-66
2022/12/31 00:08:02;;;;;;;33.33;21.87;;;3.40;99.90;;;;;;5014676;28;20227;-67
2022/12/31 00:10:29;;;;;;;42.13;24.30;;;3.40;99.90;;;;;;5014364;28;20229;-65
2022/12/31 00:12:56;;;;;;;35.77;22.60;;;3.40;99.90;;;;;;5014453;28;20214;-64
2022/12/31 00:15:22;;;;;;;29.87;20.57;;;3.40;99.90;;;;;;5014909;28;20677;-65
2022/12/31 00:17:49;;;;;;;42.10;24.97;;;3.40;99.90;;;;;;5027309;28;20198;-64
2022/12/31 00:20:16;;;;;;;36.07;23.40;;;3.40;99.90;;;;;;5033994;28;20230;-65
2022/12/31 00:22:44;;;;;;;32.27;21.57;;;3.40;99.90;;;;;;5033739;28;20213;-65
2022/12/31 00:25:11;;;;;;;32.60;20.90;;;3.40;99.90;;;;;;5034247;28;20566;-65
2022/12/31 00:27:38;;;;;;;35.80;22.60;;;3.40;99.90;;;;;;5020681;28;20227;-64
2022/12/31 00:30:05;;;;;;;34.03;21.63;;;3.40;99.90;;;;;;5014192;28;20207;-64
2022/12/31 00:32:32;;;;;;;38.03;22.47;;;3.30;99.90;;;;;;5013873;28;20211;-64
2022/12/31 00:34:59;;;;;;;33.77;21.57;;;3.40;99.90;;;;;;5014173;28;20590;-65
2022/12/31 00:37:25;;;;;;;34.63;22.60;;;3.30;99.90;;;;;;5013667;28;20725;-64
2022/12/31 00:39:53;;;;;;;33.07;21.87;;;3.30;99.90;;;;;;5013726;28;20210;-65
2022/12/31 00:42:20;;;;;;;34.27;22.60;;;3.30;99.90;;;;;;5013649;28;20199;-64
2022/12/31 00:44:47;;;;;;;33.73;21.97;;;3.30;99.90;;;;;;5013339;28;20213;-66
2022/12/31 00:47:14;;;;;;;35.30;22.30;;;3.30;99.90;;;;;;5009309;28;20223;-64
2022/12/31 00:49:41;;;;;;;32.83;22.17;;;3.30;99.90;;;;;;5009457;28;20647;-65
2022/12/31 00:52:07;;;;;;;34.77;22.70;;;3.30;99.90;;;;;;5020393;28;20559;-65
2022/12/31 00:54:34;;;;;;;40.13;23.57;;;3.30;99.90;;;;;;5015815;28;20698;-65
2022/12/31 00:57:02;;;;;;;41.53;24.23;;;3.20;99.90;;;;;;5033618;28;20206;-70
2022/12/31 00:59:29;;;;;;;36.17;21.77;;;3.20;99.90;;;;;;5033236;28;20208;-69
2022/12/31 01:01:56;;;;;;;33.87;21.30;;;3.20;99.90;;;;;;5017295;28;20222;-70
2022/12/31 01:04:23;;;;;;;36.53;22.67;;;3.10;99.90;;;;;;5013308;28;20213;-69
2022/12/31 01:06:49;;;;;;;31.93;21.33;;;3.10;99.90;;;;;;5016544;28;20201;-69
2022/12/31 01:09:17;;;;;;;41.17;24.47;;;3.10;99.90;;;;;;5033365;28;20206;-66
2022/12/31 01:11:44;;;;;;;38.77;24.17;;;3.00;99.90;;;;;;5032622;28;20210;-66
2022/12/31 01:14:14;;;;;;;35.27;22.23;;;3.00;99.90;;;;;;5033123;28;20210;-66
2022/12/31 01:16:43;;;;;;;41.43;24.10;;;3.00;99.90;;;;;;5033030;28;20572;-70
2022/12/31 01:19:13;;;;;;;38.67;23.70;;;3.00;99.90;;;;;;5015326;28;20210;-69
2022/12/31 01:21:41;;;;;;;38.73;23.40;;;3.00;99.90;;;;;;5012650;28;20214;-67
2022/12/31 01:24:09;;;;;;;36.87;23.03;;;3.00;99.90;;;;;;5012981;28;20214;-70
2022/12/31 01:26:37;;;;;;;39.93;23.20;;;3.00;99.90;;;;;;5012832;28;20213;-67
2022/12/31 01:29:05;;;;;;;38.80;23.03;;;2.90;99.90;;;;;;5012022;28;20238;-65
2022/12/31 01:31:33;;;;;;;36.53;23.03;;;2.90;99.90;;;;;;5011685;28;20210;-66
2022/12/31 01:34:01;;;;;;;35.73;23.57;;;2.90;99.90;;;;;;5012843;28;20206;-64
2022/12/31 01:36:32;;;;;;;34.07;22.60;;;2.90;99.90;;;;;;5011817;28;20238;-65
2022/12/31 01:39:01;;;;;;;37.67;24.57;;;2.90;99.90;;;;;;5012887;28;20631;-64
2022/12/31 01:41:30;;;;;;;34.77;21.73;;;2.90;99.90;;;;;;5011367;28;20666;-64
2022/12/31 01:43:59;;;;;;;38.97;24.37;;;2.90;99.90;;;;;;5012747;28;20206;-64
2022/12/31 01:46:35;;;;;;;36.23;22.70;;;2.90;99.90;;;;;;5012547;28;20213;-65
2022/12/31 01:49:06;;;;;;;39.70;24.53;;;2.90;99.90;;;;;;5012704;28;20215;-64
2022/12/31 01:51:35;;;;;;;40.73;24.43;;;2.90;99.90;;;;;;5009101;28;20855;-65
2022/12/31 01:54:04;;;;;;;38.93;25.17;;;2.80;99.90;;;;;;5010381;28;20648;-64
2022/12/31 01:56:31;;;;;;;36.40;24.03;;;2.80;99.90;;;;;;5012348;28;20213;-63
2022/12/31 01:58:58;;;;;;;41.33;24.97;;;2.80;99.90;;;;;;5012441;28;20203;-63
2022/12/31 02:01:29;;;;;;;42.13;25.53;;;2.80;99.90;;;;;;5011206;28;20214;-64
2022/12/31 02:03:58;;;;;;;42.20;25.90;;;2.70;99.90;;;;;;5012522;28;20294;-64
2022/12/31 02:06:30;;;;;;;36.63;22.67;;;2.70;99.90;;;;;;5010934;28;20564;-63
2022/12/31 02:08:58;;;;;;;38.03;23.93;;;2.70;99.90;;;;;;5011882;28;20226;-63
2022/12/31 02:11:27;;;;;;;36.67;23.07;;;2.70;99.90;;;;;;5011316;28;20211;-66
2022/12/31 02:13:57;;;;;;;36.27;24.23;;;2.70;99.90;;;;;;5010289;28;20203;-65
2022/12/31 02:16:31;;;;;;;39.07;24.40;;;2.80;99.90;;;;;;5011778;28;20211;-64
2022/12/31 02:19:10;;;;;;;44.27;27.23;;;2.80;99.90;;;;;;5012430;28;20191;-64
2022/12/31 02:21:53;;;;;;;37.77;24.07;;;2.80;99.90;;;;;;5012281;28;20203;-65
2022/12/31 02:24:43;;;;;;;42.30;26.27;;;2.70;99.90;;;;;;5011391;28;20203;-65
2022/12/31 02:27:14;;;;;;;38.93;24.60;;;2.70;99.90;;;;;;5012044;28;20191;-64
2022/12/31 02:30:05;;;;;;;41.03;24.77;;;2.70;99.90;;;;;;5012240;28;20762;-63
2022/12/31 02:32:48;;;;;;;40.37;24.47;;;2.70;99.90;;;;;;5010587;28;20600;-64
2022/12/31 02:35:20;;;;;;;38.37;24.27;;;2.60;99.90;;;;;;4992189;28;20640;-64
2022/12/31 02:37:52;;;;;;;41.40;24.20;;;2.60;99.90;;;;;;4992478;28;20195;-63
2022/12/31 02:40:21;;;;;;;45.73;26.57;;;2.60;99.90;;;;;;4992307;28;20203;-66
2022/12/31 02:42:48;;;;;;;40.90;25.87;;;2.60;99.90;;;;;;5008255;28;20218;-64
2022/12/31 02:45:23;;;;;;;39.37;24.37;;;2.60;99.90;;;;;;5011892;28;20207;-64
2022/12/31 02:48:02;;;;;;;37.37;23.60;;;2.60;99.90;;;;;;5014001;28;20210;-64
2022/12/31 02:50:39;;;;;;;40.17;25.47;;;2.60;99.90;;;;;;5015841;28;20653;-64
2022/12/31 02:53:20;;;;;;;38.30;22.83;;;2.70;99.90;;;;;;5013817;28;20203;-65
2022/12/31 02:55:55;;;;;;;41.03;25.53;;;2.70;99.90;;;;;;5015798;28;20190;-65
2022/12/31 03:04:30;;;;;;;42.30;25.30;;;2.70;99.90;;;;;;5015587;28;20187;-64
2022/12/31 03:06:51;;;;;;;40.07;24.53;;;2.70;99.90;;;;;;5015378;28;20210;-64
2022/12/31 03:09:17;;;;;;;42.30;25.80;;;2.70;99.90;;;;;;5014322;28;20230;-64
2022/12/31 03:14:28;;;;;;;36.20;23.17;;;2.70;99.90;;;;;;5015093;28;20662;-63
2022/12/31 03:16:56;;;;;;;41.50;24.80;;;2.70;99.90;;;;;;5015553;28;20210;-66
2022/12/31 03:22:27;;;;;;;40.43;25.20;;;2.60;99.90;;;;;;5015217;28;20276;-64
2022/12/31 03:27:40;;;;;;;40.07;25.57;;;2.60;99.90;;;;;;5014967;28;20397;-64
2022/12/31 03:30:08;;;;;;;38.87;25.17;;;2.60;99.90;;;;;;5014167;28;20225;-64
2022/12/31 03:32:36;;;;;;;49.80;28.33;;;2.60;99.90;;;;;;5015277;28;20576;-66
2022/12/31 03:35:03;;;;;;;47.47;27.93;;;2.60;99.90;;;;;;5015034;28;20206;-65
2022/12/31 03:37:30;;;;;;;39.53;24.43;;;2.50;99.90;;;;;;5014783;28;20235;-63
2022/12/31 03:39:57;;;;;;;44.17;27.43;;;2.50;99.90;;;;;;5013164;28;20206;-65
2022/12/31 03:42:23;;;;;;;43.77;27.63;;;2.50;99.90;;;;;;5014504;28;20206;-64
2022/12/31 03:44:50;;;;;;;44.40;27.37;;;2.50;99.90;;;;;;5015114;28;20815;-65
2022/12/31 03:47:17;;;;;;;42.73;25.67;;;2.50;99.90;;;;;;5014768;28;20579;-65
2022/12/31 03:49:45;;;;;;;38.90;25.27;;;2.50;99.90;;;;;;5012272;28;20245;-65
2022/12/31 03:52:12;;;;;;;46.33;27.97;;;2.50;99.90;;;;;;5014518;28;20213;-64
2022/12/31 03:54:38;;;;;;;57.93;28.67;;;2.50;99.90;;;;;;5014750;28;20557;-65
2022/12/31 03:57:05;;;;;;;47.87;28.13;;;2.50;99.90;;;;;;5014538;28;20241;-63
2022/12/31 03:59:32;;;;;;;44.90;26.33;;;2.50;99.90;;;;;;5012831;28;20225;-65
2022/12/31 04:01:59;;;;;;;46.67;27.67;;;2.50;99.90;;;;;;5014265;28;20222;-64
2022/12/31 04:04:25;;;;;;;44.57;27.33;;;2.50;99.90;;;;;;5014581;28;20202;-65
2022/12/31 04:06:54;;;;;;;47.87;28.80;;;2.50;99.90;;;;;;5012816;28;20207;-65
2022/12/31 04:09:20;;;;;;;183.90;38.57;;;2.50;99.90;;;;;;5013970;28;20234;-65
2022/12/31 04:11:47;;;;;;;127.30;36.07;;;2.40;99.90;;;;;;5014186;28;20215;-64
2022/12/31 04:14:15;;;;;;;94.87;33.27;;;2.40;99.90;;;;;;5014118;28;20206;-64
2022/12/31 04:16:42;;;;;;;161.80;32.87;;;2.40;99.90;;;;;;5013527;28;20253;-64
2022/12/31 04:19:09;;;;;;;144.10;36.00;;;2.40;99.90;;;;;;5014099;28;20584;-64
2022/12/31 04:21:36;;;;;;;133.00;34.90;;;2.30;99.90;;;;;;5014218;28;20230;-63
2022/12/31 04:24:05;;;;;;;51.43;28.57;;;2.40;99.90;;;;;;5013939;28;20213;-63
2022/12/31 04:26:32;;;;;;;46.73;27.50;;;2.40;99.90;;;;;;5013498;28;20294;-65
2022/12/31 04:28:59;;;;;;;71.33;33.70;;;2.40;99.90;;;;;;5013819;28;20231;-65
2022/12/31 04:31:27;;;;;;;59.73;35.13;;;2.40;99.90;;;;;;5014081;28;20207;-64
2022/12/31 04:33:53;;;;;;;59.10;32.30;;;2.40;99.90;;;;;;5013835;28;20209;-64
2022/12/31 04:36:20;;;;;;;60.07;34.67;;;2.40;99.90;;;;;;5012669;28;20600;-64
2022/12/31 04:38:47;;;;;;;81.03;37.03;;;2.30;99.90;;;;;;5013944;28;20559;-64
2022/12/31 04:41:18;;;;;;;63.83;36.53;;;2.30;99.90;;;;;;5012009;28;20569;-64
2022/12/31 04:43:47;;;;;;;54.93;30.63;;;2.30;99.90;;;;;;5013895;28;20202;-64
2022/12/31 04:46:15;;;;;;;55.87;31.03;;;2.20;99.90;;;;;;5013262;28;20217;-63
2022/12/31 04:48:42;;;;;;;109.33;32.23;;;2.30;99.90;;;;;;5013785;28;20226;-65
2022/12/31 04:51:09;;;;;;;57.70;28.03;;;2.30;99.90;;;;;;5012512;28;20218;-65
2022/12/31 04:53:36;;;;;;;217.77;37.93;;;2.30;99.90;;;;;;5013646;28;20659;-65
2022/12/31 04:56:03;;;;;;;207.87;35.10;;;2.20;99.90;;;;;;5013425;28;20203;-65
2022/12/31 04:58:31;;;;;;;159.50;35.33;;;2.20;99.90;;;;;;5013453;28;20206;-64
2022/12/31 05:00:58;;;;;;;254.87;37.67;;;2.10;99.90;;;;;;5012280;28;20203;-65
2022/12/31 05:03:26;;;;;;;93.20;30.07;;;2.10;99.90;;;;;;5013510;28;20210;-66
2022/12/31 05:05:53;;;;;;;80.20;27.73;;;2.00;99.90;;;;;;5013327;28;20213;-65
2022/12/31 05:08:21;;;;;;;100.87;28.43;;;2.00;99.90;;;;;;5013334;28;20234;-65
2022/12/31 05:10:48;;;;;;;338.17;44.50;;;2.10;99.90;;;;;;5011346;28;20562;-64
2022/12/31 05:13:16;;;;;;;45.67;23.80;;;2.00;99.90;;;;;;5013391;28;20655;-64
2022/12/31 05:15:46;;;;;;;45.47;25.23;;;2.00;99.90;;;;;;5013368;28;20207;-66
2022/12/31 05:18:13;;;;;;;109.13;31.60;;;2.00;99.90;;;;;;5013179;28;20202;-65
2022/12/31 05:20:40;;;;;;;68.57;26.50;;;2.00;99.90;;;;;;5012465;28;20226;-64
2022/12/31 05:23:07;;;;;;;96.17;29.67;;;2.00;99.90;;;;;;5012894;28;20544;-65
2022/12/31 05:25:34;;;;;;;127.53;29.63;;;2.00;99.90;;;;;;5013165;28;20667;-64
2022/12/31 05:28:01;;;;;;;83.30;26.07;;;2.00;99.90;;;;;;5012508;28;20214;-65
2022/12/31 05:30:28;;;;;;;94.67;28.63;;;2.00;99.90;;;;;;5011418;28;20210;-65
2022/12/31 05:32:56;;;;;;;125.13;30.17;;;2.10;99.90;;;;;;5012390;28;20216;-65
2022/12/31 05:35:22;;;;;;;71.80;27.30;;;2.00;99.90;;;;;;5012419;28;20218;-65
2022/12/31 05:37:49;;;;;;;53.73;24.93;;;2.00;99.90;;;;;;5012487;28;20195;-65
2022/12/31 05:40:16;;;;;;;62.20;26.17;;;2.00;99.90;;;;;;5011960;28;20566;-66
2022/12/31 05:42:43;;;;;;;71.40;28.80;;;2.00;99.90;;;;;;5012046;28;20202;-68
2022/12/31 05:45:12;;;;;;;129.87;36.20;;;2.00;99.90;;;;;;5011721;28;20672;-65
2022/12/31 05:47:39;;;;;;;94.13;35.50;;;1.90;99.90;;;;;;5012629;28;20586;-65
2022/12/31 05:50:09;;;;;;;161.37;42.27;;;1.90;99.90;;;;;;5012257;28;20230;-66
2022/12/31 05:52:36;;;;;;;192.47;39.23;;;1.90;99.90;;;;;;5011421;28;20938;-65
2022/12/31 05:55:04;;;;;;;73.07;33.37;;;1.90;99.90;;;;;;5012026;28;20218;-64
2022/12/31 05:57:30;;;;;;;89.67;33.37;;;1.90;99.90;;;;;;5012469;28;20639;-65
2022/12/31 05:59:57;;;;;;;165.83;38.93;;;1.90;99.90;;;;;;5012242;28;20206;-64
2022/12/31 06:02:24;;;;;;;180.93;34.63;;;1.90;99.90;;;;;;5010663;28;20206;-64
2022/12/31 06:04:51;;;;;;;119.10;32.30;;;2.00;99.90;;;;;;5010668;28;20647;-65
2022/12/31 06:07:19;;;;;;;204.17;38.07;;;1.90;99.90;;;;;;5012290;28;20552;-64
2022/12/31 06:09:46;;;;;;;508.07;55.27;;;2.00;99.90;;;;;;5012067;28;20586;-64
2022/12/31 06:12:12;;;;;;;87.13;30.27;;;2.00;99.90;;;;;;5012311;28;20543;-64
2022/12/31 06:14:39;;;;;;;661.17;71.33;;;2.00;99.90;;;;;;5010072;28;20662;-64
2022/12/31 06:17:06;;;;;;;364.23;45.27;;;2.00;99.90;;;;;;5012074;28;20207;-66
2022/12/31 06:19:33;;;;;;;280.23;39.77;;;1.90;99.90;;;;;;5011771;28;20230;-65
2022/12/31 06:21:59;;;;;;;851.50;84.00;;;1.90;99.90;;;;;;5011607;28;20218;-65
2022/12/31 06:24:28;;;;;;;316.23;37.40;;;2.00;99.90;;;;;;5009970;28;20210;-64
2022/12/31 06:26:54;;;;;;;280.10;40.73;;;2.00;99.90;;;;;;5012028;28;20316;-65
2022/12/31 06:29:21;;;;;;;77.90;30.40;;;2.00;99.90;;;;;;5012040;28;20223;-64
2022/12/31 06:31:48;;;;;;;300.50;42.57;;;2.00;99.90;;;;;;5010755;28;20207;-64
2022/12/31 06:34:15;;;;;;;69.70;29.17;;;2.00;99.90;;;;;;5011993;28;20210;-65
2022/12/31 06:36:41;;;;;;;54.43;30.23;;;2.00;99.90;;;;;;5011529;28;20616;-64
2022/12/31 06:39:08;;;;;;;55.57;29.33;;;2.10;99.90;;;;;;5012203;28;20579;-66
2022/12/31 06:41:36;;;;;;;51.57;27.97;;;2.10;99.90;;;;;;5009837;28;20758;-67
2022/12/31 06:44:03;;;;;;;77.50;32.70;;;2.10;99.90;;;;;;5011096;28;20225;-67
2022/12/31 06:46:30;;;;;;;57.33;32.00;;;2.10;99.90;;;;;;5011889;28;20206;-68
2022/12/31 06:48:57;;;;;;;48.03;27.70;;;2.10;99.90;;;;;;5011478;28;20253;-68
2022/12/31 06:51:23;;;;;;;94.97;36.33;;;2.20;99.90;;;;;;5009600;28;20682;-67
2022/12/31 06:53:51;;;;;;;82.67;36.70;;;2.30;99.90;;;;;;5011511;28;20694;-67
2022/12/31 06:56:20;;;;;;;100.60;39.53;;;2.30;99.90;;;;;;5012052;28;20238;-65
2022/12/31 06:58:49;;;;;;;59.70;33.77;;;2.30;99.90;;;;;;5011616;28;20557;-67
2022/12/31 07:01:45;;;;;;;87.07;36.13;;;2.30;99.90;;;;;;5010469;28;20198;-68
2022/12/31 07:04:44;;;;;;;56.87;30.57;;;2.30;99.90;;;;;;5010795;28;20199;-67
2022/12/31 07:07:16;;;;;;;51.30;28.37;;;2.30;99.90;;;;;;5008735;28;20210;-67
2022/12/31 07:09:52;;;;;;;57.97;31.17;;;2.40;99.90;;;;;;5010711;28;20211;-67
2022/12/31 07:12:32;;;;;;;53.83;30.43;;;2.40;99.90;;;;;;5011034;28;20226;-67
2022/12/31 07:15:05;;;;;;;49.30;29.33;;;2.50;99.90;;;;;;5009759;28;20213;-67
2022/12/31 07:17:39;;;;;;;55.27;29.27;;;2.50;99.90;;;;;;5011347;28;20671;-67
2022/12/31 07:20:10;;;;;;;58.27;32.43;;;2.50;99.90;;;;;;5011362;28;20193;-67
2022/12/31 07:22:37;;;;;;;52.93;31.73;;;2.60;99.90;;;;;;5011212;28;20218;-68
2022/12/31 07:25:05;;;;;;;55.73;31.97;;;2.70;99.90;;;;;;5011684;28;20207;-66
2022/12/31 07:27:52;;;;;;;49.40;30.30;;;2.70;99.90;;;;;;5010623;28;20663;-67
2022/12/31 07:30:24;;;;;;;54.00;32.60;;;2.70;99.90;;;;;;5011379;28;20218;-68
2022/12/31 07:33:05;;;;;;;54.43;32.00;;;2.80;99.90;;;;;;5011645;28;20230;-67
2022/12/31 07:35:44;;;;;;;49.10;31.10;;;2.80;99.90;;;;;;5014025;28;20749;-68
2022/12/31 07:38:20;;;;;;;57.77;33.20;;;2.80;99.90;;;;;;5015102;28;20195;-67
2022/12/31 07:40:58;;;;;;;48.10;29.47;;;2.90;99.90;;;;;;5014409;28;20544;-66
2022/12/31 07:43:32;;;;;;;54.13;30.33;;;2.90;99.90;;;;;;5015091;28;20547;-66
2022/12/31 07:46:11;;;;;;;46.80;29.80;;;3.00;99.90;;;;;;5012709;28;20202;-66
2022/12/31 07:48:38;;;;;;;45.30;28.63;;;3.00;99.90;;;;;;5014781;28;20191;-65
2022/12/31 07:51:06;;;;;;;45.83;29.00;;;3.10;99.90;;;;;;5014828;28;20223;-66
2022/12/31 07:53:33;;;;;;;47.83;28.83;;;3.20;99.90;;;;;;5014185;28;20210;-66
2022/12/31 07:56:01;;;;;;;45.20;28.73;;;3.20;99.90;;;;;;5014332;28;20211;-67
2022/12/31 07:58:40;;;;;;;49.73;31.43;;;3.30;99.90;;;;;;5014244;28;20207;-67
2022/12/31 08:01:11;;;;;;;49.77;30.93;;;3.40;99.90;;;;;;5014345;28;20522;-67
2022/12/31 08:03:50;;;;;;;52.17;30.93;;;3.40;99.90;;;;;;5013944;28;20217;-68
2022/12/31 08:06:24;;;;;;;57.53;35.53;;;3.50;99.90;;;;;;5014638;28;20195;-67
2022/12/31 08:09:02;;;;;;;51.20;32.30;;;3.50;99.90;;;;;;5014004;28;20197;-71
2022/12/31 08:11:36;;;;;;;54.43;32.70;;;3.60;99.90;;;;;;5012867;28;20230;-67
2022/12/31 08:14:03;;;;;;;50.27;31.13;;;3.70;99.90;;;;;;5014463;28;20581;-67
2022/12/31 08:16:31;;;;;;;51.37;31.97;;;3.70;99.90;;;;;;5014249;28;20202;-67
2022/12/31 08:18:59;;;;;;;53.80;32.70;;;3.70;99.90;;;;;;5014642;28;20217;-69
2022/12/31 08:21:39;;;;;;;48.80;30.57;;;3.80;99.90;;;;;;5012912;28;20210;-69
2022/12/31 08:24:16;;;;;;;50.60;31.27;;;3.80;99.90;;;;;;5014344;28;20286;-69
2022/12/31 08:26:52;;;;;;;51.17;29.20;;;3.90;99.90;;;;;;5013271;28;20194;-67
2022/12/31 08:29:34;;;;;;;53.70;30.30;;;3.90;99.90;;;;;;5014167;28;20694;-69
2022/12/31 08:32:11;;;;;;;46.67;28.77;;;4.00;99.90;;;;;;5011343;28;20565;-68
2022/12/31 08:34:45;;;;;;;45.10;27.93;;;4.00;99.90;;;;;;5011465;28;20205;-67
2022/12/31 08:37:17;;;;;;;45.17;26.97;;;4.10;99.90;;;;;;5013689;28;20239;-67
2022/12/31 08:39:55;;;;;;;44.37;28.03;;;4.10;99.90;;;;;;5012985;28;20193;-67
2022/12/31 08:42:29;;;;;;;45.23;27.80;;;4.20;99.90;;;;;;5011916;28;20203;-67
2022/12/31 08:45:04;;;;;;;44.30;27.50;;;4.30;99.90;;;;;;5013691;28;20195;-68
2022/12/31 08:47:41;;;;;;;40.50;25.93;;;4.40;99.90;;;;;;5013546;28;20201;-68
2022/12/31 08:50:14;;;;;;;49.10;28.07;;;4.40;99.90;;;;;;5013782;28;20211;-69
2022/12/31 08:52:42;;;;;;;40.37;25.40;;;4.50;99.90;;;;;;5012888;28;20207;-68
2022/12/31 08:55:14;;;;;;;42.30;25.10;;;4.60;99.90;;;;;;5013501;28;20778;-68
2022/12/31 08:57:46;;;;;;;42.80;26.87;;;4.70;99.90;;;;;;5013556;28;20210;-68
2022/12/31 09:00:15;;;;;;;43.37;26.63;;;4.80;99.90;;;;;;5013620;28;20647;-66
2022/12/31 09:03:06;;;;;;;41.00;25.47;;;4.80;99.90;;;;;;5017858;28;20218;-68
2022/12/31 09:05:47;;;;;;;42.47;25.37;;;4.90;99.90;;;;;;5009875;28;20198;-67
2022/12/31 09:08:21;;;;;;;44.23;26.60;;;5.00;99.90;;;;;;5009196;28;20203;-67
2022/12/31 09:10:58;;;;;;;41.90;25.90;;;5.10;99.90;;;;;;5009853;28;20632;-68
2022/12/31 09:13:36;;;;;;;42.03;25.97;;;5.20;99.90;;;;;;5009348;28;20210;-67
2022/12/31 09:16:11;;;;;;;38.27;25.07;;;5.30;99.90;;;;;;5012247;28;20202;-67
2022/12/31 09:18:41;;;;;;;43.57;26.43;;;5.30;99.90;;;;;;5012833;28;20201;-69
2022/12/31 09:21:10;;;;;;;39.93;25.47;;;5.40;99.90;;;;;;5012290;28;20534;-69
2022/12/31 09:23:37;;;;;;;42.43;26.17;;;5.50;99.90;;;;;;5016929;28;20198;-66
2022/12/31 09:26:14;;;;;;;36.77;23.73;;;5.50;99.90;;;;;;5022941;28;20210;-65
2022/12/31 09:28:49;;;;;;;42.07;25.77;;;5.60;99.90;;;;;;5013041;28;20639;-67
2022/12/31 09:31:20;;;;;;;44.83;26.47;;;5.70;99.90;;;;;;5012499;28;20210;-66
2022/12/31 09:33:56;;;;;;;39.50;24.70;;;5.80;99.90;;;;;;5013183;28;20199;-66
2022/12/31 09:36:30;;;;;;;44.00;26.03;;;5.80;99.90;;;;;;5012582;28;20717;-65
2022/12/31 09:39:05;;;;;;;39.70;23.83;;;5.90;99.90;;;;;;5012785;28;20197;-64
2022/12/31 09:42:04;;;;;;;42.13;24.23;;;6.00;99.90;;;;;;5027776;28;20570;-65
2022/12/31 09:45:04;;;;;;;36.43;22.13;;;6.10;99.90;;;;;;5029996;28;20230;-65
2022/12/31 09:47:55;;;;;;;35.73;21.30;;;6.20;99.90;;;;;;5008023;28;20210;-66
2022/12/31 09:50:55;;;;;;;34.53;20.27;;;6.30;99.90;;;;;;5010414;28;20219;-66
2022/12/31 09:54:00;;;;;;;37.30;20.13;;;6.40;99.90;;;;;;5010505;28;20354;-66
2022/12/31 09:56:32;;;;;;;33.30;20.67;;;6.50;99.90;;;;;;4990658;28;20542;-65
2022/12/31 09:59:03;;;;;;;29.97;19.37;;;6.60;99.90;;;;;;5012433;28;20197;-65
2022/12/31 10:01:46;;;;;;;30.37;18.43;;;6.60;99.90;;;;;;5012544;28;20605;-67
2022/12/31 10:04:34;;;;;;;31.87;18.63;;;6.70;99.90;;;;;;5012367;28;20191;-65
2022/12/31 10:07:14;;;;;;;30.40;18.80;;;6.80;99.90;;;;;;5011788;28;20199;-65
2022/12/31 10:10:09;;;;;;;31.60;19.37;;;6.90;99.90;;;;;;5012347;28;20199;-70
2022/12/31 10:12:58;;;;;;;33.93;18.73;;;6.90;99.90;;;;;;5012417;28;20211;-65
2022/12/31 10:15:46;;;;;;;30.40;17.83;;;7.00;99.90;;;;;;5011890;28;20206;-69
2022/12/31 10:18:23;;;;;;;31.73;17.93;;;7.10;99.90;;;;;;5012233;28;20207;-70
2022/12/31 10:21:06;;;;;;;26.77;17.53;;;7.20;99.90;;;;;;5012554;28;20187;-68
2022/12/31 10:24:06;;;;;;;28.47;16.23;;;7.20;99.90;;;;;;5010566;28;20211;-72
2022/12/31 10:26:54;;;;;;;23.97;15.10;;;7.30;99.90;;;;;;4997696;28;20724;-74
2022/12/31 10:29:30;;;;;;;26.60;14.83;;;7.30;99.90;;;;;;5008837;28;20571;-73
2022/12/31 10:32:13;;;;;;;26.53;15.00;;;7.30;99.90;;;;;;5012243;28;20194;-71
2022/12/31 10:34:53;;;;;;;22.43;14.50;;;7.40;99.90;;;;;;5012240;28;20202;-71
2022/12/31 10:37:24;;;;;;;26.60;14.43;;;7.50;99.90;;;;;;5011751;28;20757;-72
2022/12/31 10:40:02;;;;;;;26.63;15.40;;;7.50;99.90;;;;;;5009827;28;20217;-70
2022/12/31 10:42:48;;;;;;;26.40;14.83;;;7.50;99.90;;;;;;5010649;28;20218;-71
2022/12/31 10:45:48;;;;;;;21.70;13.43;;;7.50;99.90;;;;;;5007658;28;20573;-69
2022/12/31 10:48:51;;;;;;;22.27;14.13;;;7.50;99.90;;;;;;5010663;28;20206;-70
2022/12/31 10:51:53;;;;;;;29.33;16.33;;;7.50;99.90;;;;;;5010466;28;20229;-69
2022/12/31 10:55:04;;;;;;;28.67;16.07;;;7.60;99.90;;;;;;5009996;28;20691;-69
2022/12/31 10:58:05;;;;;;;34.20;17.83;;;7.70;99.90;;;;;;5008262;28;20207;-71
2022/12/31 11:00:37;;;;;;;28.83;17.63;;;7.70;99.90;;;;;;5001695;28;20272;-70
2022/12/31 11:03:54;;;;;;;27.60;17.77;;;7.70;99.90;;;;;;5011305;28;20187;-72
2022/12/31 11:06:49;;;;;;;27.63;17.20;;;7.70;99.90;;;;;;5011759;28;20206;-65
2022/12/31 11:09:54;;;;;;;26.27;15.93;;;7.60;99.90;;;;;;5014506;28;20198;-68
2022/12/31 11:12:50;;;;;;;28.70;16.10;;;7.60;99.90;;;;;;5015549;28;20198;-65
2022/12/31 11:15:38;;;;;;;25.03;16.33;;;7.60;99.90;;;;;;5015445;28;20195;-67
2022/12/31 11:18:15;;;;;;;29.43;16.60;;;7.60;99.90;;;;;;5008950;28;20206;-66
2022/12/31 11:21:08;;;;;;;28.70;16.40;;;7.60;99.90;;;;;;5015493;28;20658;-66
2022/12/31 11:23:42;;;;;;;38.77;23.77;;;7.70;99.90;;;;;;5015052;28;20227;-66
2022/12/31 11:26:22;;;;;;;32.43;19.27;;;7.70;99.90;;;;;;5012187;28;20639;-67
2022/12/31 11:29:04;;;;;;;27.40;15.60;;;7.70;99.90;;;;;;5015045;28;20558;-67
2022/12/31 11:31:49;;;;;;;27.60;16.33;;;7.70;99.90;;;;;;5015373;28;20219;-67
2022/12/31 11:34:42;;;;;;;31.17;17.70;;;7.60;99.90;;;;;;5015227;28;20205;-67
2022/12/31 11:37:29;;;;;;;32.73;18.03;;;7.60;99.90;;;;;;5015004;28;20239;-66
2022/12/31 11:40:14;;;;;;;28.53;17.97;;;7.60;99.90;;;;;;5015076;28;20562;-66
2022/12/31 11:42:50;;;;;;;30.17;18.17;;;7.60;99.90;;;;;;5014985;28;20198;-66
2022/12/31 11:45:38;;;;;;;26.40;15.97;;;7.60;99.90;;;;;;5015156;28;20558;-67
2022/12/31 11:48:12;;;;;;;26.37;16.37;;;7.60;99.90;;;;;;5015071;28;20591;-66
2022/12/31 11:50:50;;;;;;;25.10;16.07;;;7.60;99.90;;;;;;5012461;28;20214;-68
2022/12/31 11:53:39;;;;;;;27.27;16.47;;;7.70;99.90;;;;;;5015212;28;20200;-66
2022/12/31 11:56:15;;;;;;;24.23;15.93;;;7.70;99.90;;;;;;5035730;28;20201;-73
2022/12/31 11:58:47;;;;;;;26.73;16.20;;;7.70;99.90;;;;;;5014466;28;20285;-70
2022/12/31 12:01:20;;;;;;;27.90;16.27;;;7.70;99.90;;;;;;5015347;28;20191;-72
2022/12/31 12:03:47;;;;;;;27.30;16.00;;;7.70;99.90;;;;;;5014625;28;20253;-71
2022/12/31 12:06:17;;;;;;;30.20;17.33;;;7.70;99.90;;;;;;5014787;28;20222;-72
2022/12/31 12:08:45;;;;;;;33.47;18.77;;;7.70;99.90;;;;;;5014695;28;20230;-73
2022/12/31 12:11:18;;;;;;;33.23;20.27;;;7.70;99.90;;;;;;5014862;28;20222;-74
2022/12/31 12:13:45;;;;;;;32.67;19.03;;;7.70;99.90;;;;;;5013280;28;20254;-72
2022/12/31 12:16:13;;;;;;;32.07;18.83;;;7.70;99.90;;;;;;5014541;28;20210;-70
2022/12/31 12:18:45;;;;;;;30.43;19.03;;;7.60;99.90;;;;;;5014531;28;20566;-69
2022/12/31 12:21:15;;;;;;;31.77;18.47;;;7.70;99.90;;;;;;5009085;28;20659;-68
2022/12/31 12:23:54;;;;;;;31.43;18.07;;;7.70;99.90;;;;;;5014466;28;20194;-72
2022/12/31 12:26:29;;;;;;;28.17;17.63;;;7.70;99.90;;;;;;5014649;28;20253;-71
2022/12/31 12:29:01;;;;;;;31.23;19.00;;;7.80;99.90;;;;;;5013352;28;20204;-71
2022/12/31 12:31:29;;;;;;;36.73;20.10;;;7.80;99.90;;;;;;5013905;28;20246;-69
2022/12/31 12:33:57;;;;;;;36.83;21.57;;;7.80;99.90;;;;;;5013894;28;20203;-71
2022/12/31 12:36:24;;;;;;;38.50;22.60;;;7.80;99.90;;;;;;5014098;28;20616;-69
2022/12/31 12:39:01;;;;;;;37.27;21.40;;;7.70;99.90;;;;;;5025814;28;20213;-70
2022/12/31 12:41:28;;;;;;;35.87;20.83;;;7.70;99.90;;;;;;5034356;28;20224;-70
2022/12/31 12:44:03;;;;;;;34.57;19.90;;;7.70;99.90;;;;;;5018224;28;20571;-71
2022/12/31 12:46:33;;;;;;;32.23;19.67;;;7.70;99.90;;;;;;5014393;28;20584;-69
2022/12/31 12:49:03;;;;;;;36.60;20.77;;;7.70;99.90;;;;;;5013763;28;20217;-69
2022/12/31 12:52:05;;;;;;;33.40;19.87;;;7.70;99.90;;;;;;5014511;28;20238;-71
2022/12/31 12:54:48;;;;;;;35.57;20.37;;;7.70;99.90;;;;;;5014859;28;20229;-70
2022/12/31 12:57:20;;;;;;;31.57;19.23;;;7.70;99.90;;;;;;5009686;28;20196;-69
2022/12/31 13:00:01;;;;;;;33.57;20.27;;;7.70;99.90;;;;;;5007352;28;20206;-71
2022/12/31 13:03:08;;;;;;;38.60;21.50;;;7.60;99.90;;;;;;5006238;28;20277;-70
2022/12/31 13:05:47;;;;;;;35.77;20.93;;;7.60;99.90;;;;;;5003019;28;20198;-70
2022/12/31 13:08:25;;;;;;;39.77;23.10;;;7.60;99.90;;;;;;5009350;28;20237;-71
2022/12/31 13:11:03;;;;;;;37.60;23.33;;;7.50;99.90;;;;;;5009197;28;20207;-70
2022/12/31 13:13:40;;;;;;;38.20;21.70;;;7.50;99.90;;;;;;5012287;28;20625;-70
2022/12/31 13:16:14;;;;;;;34.47;20.87;;;7.40;99.90;;;;;;5019260;28;20676;-70
2022/12/31 13:18:51;;;;;;;34.30;20.90;;;7.40;99.90;;;;;;5002563;28;20203;-69
2022/12/31 13:21:37;;;;;;;38.83;22.50;;;7.30;99.90;;;;;;5010729;28;20205;-70